Terminal Aerodrome Forecast
Issued by NWS

Home | Current Version | Previous Version | Text Only | Print | Product List | Glossary On
Versions: 1 2 3 4 5 6 7 8 9 10 11 12 13 14 15 16 17 18 19 20 21 22 23 24 25 26 27 28 29 30 31 32 33 34 35 36 37 38 39 40 41 42 43 44 45 46 47 48 49 50
000
FTAK31 PANC 251420 AAA
TAFACD
TAF AMD
PACD 251420Z 2514/2612 28014KT 6SM -RA BR SCT005 OVC015
      TEMPO 2514/2516 3SM -RA BR OVC003
     FM251800 30015KT P6SM VCSH SCT006 OVC012
     FM252300 31012KT P6SM SCT025 BKN080
     FM260600 31010KT P6SM OVC015
     FM261000 28009KT 3SM BR OVC005=

USA.gov is the U.S. government's official web portal to all federal, state and local government web resources and services.